Airfield :
LOGIN :

Register | Disclaimer

   EN    FR    IT 

 










Legend :    VFR   Marginal VFR   IFR   Intensive IFR   Very Intensive IFR
Visi :
Ceiling :
>= 8 km
>= 3000ft
5 to 8 km
1000 to 3000 ft
1500m to 5 km
500 to 1000 ft
800 to 1500m
200 to 500 ft
< 800m
< 200 ft
Symbols :   Thunderstorms  Fog  Heavy snow  Heavy precipitations  Wind > 20 kt
SIGMETs :     Misc.  Thunderstorms  Icing  Turbulence  Mountain Waves  Volcanic Ashes






- Airport Elevation : 375 ft
- IATA code : MST


EHBK - Maastricht Aachen

CURRENT METAR :
  • 212355Z AUTO 02007KT 9999 NSC 04/02 Q1025

EXPIRED METARs :
  • 212325Z AUTO 01006KT 340V040 9999 NSC 04/02 Q1026
  • 212255Z AUTO 36005KT 330V030 9999 NSC 04/02 Q1026
  • 212225Z AUTO 36005KT 9999 NSC 04/02 Q1025
  • 212155Z AUTO 36006KT 9999 NCD 04/02 Q1025
  • 212125Z AUTO 36004KT 320V040 9999 NSC 04/02 Q1025
  • 212055Z AUTO 36005KT 320V030 9999 NSC 05/02 Q1025 NOSIG
  • 212025Z AUTO 36005KT 330V040 9999 NSC 05/02 Q1025 NOSIG
  • 211955Z AUTO 35006KT 310V030 9999 NSC 05/02 Q1025 NOSIG
  • 211925Z AUTO 35005KT 320V030 9999 NSC 05/02 Q1025 NOSIG

TAF TAF EHBK
Valid from the 22 at 00:00 until the 23 at 06:00 UTC


212255Z 2200/2306 02005KT CAVOK
PROB30
TEMPO 2210/2219 04015G25KT 5000 SHRA SHGS FEW030CB



MET'MAP, your aeronautical weather chart ! - Copyright ORBIFLY December 2007 - Disclaimer

ORBIFLY MET'MAP TEAM :

Programming & Development : Alexandra Zaïnal
Original concept : Baudouin d'Aumeries
Technical & hardware support : Manuel Goepfert
Assistance : Marc-Olivier Méhu




SOURCES & CREDITS :

   NOAA